Time;durP1;ratioP1;P1;durP2;ratioP2;P2;SDS_P1;SDS_P2;PMS_P1;PMS_P2;Temp;Humidity;BMP_temperature;BMP_pressure;BME280_temperature;BME280_humidity;BME280_pressure;Samples;Min_cycle;Max_cycle;Signal;HPM_P1;HPM_P2
2023/07/09 00:01:56;;;;;;;7.33;4.17;;;;;;;21.90;100.00;102141.69;4924541;29;20952;-82
2023/07/09 00:04:21;;;;;;;5.00;4.37;;;;;;;21.84;100.00;102140.75;4925906;29;20502;-80
2023/07/09 00:06:47;;;;;;;5.23;4.27;;;;;;;21.51;100.00;102114.13;4925257;29;20191;-81
2023/07/09 00:09:15;;;;;;;6.60;4.87;;;;;;;21.76;100.00;102162.16;4923399;29;20187;-82
2023/07/09 00:11:41;;;;;;;4.97;4.40;;;;;;;21.68;100.00;102144.22;4925814;29;20443;-81
2023/07/09 00:14:08;;;;;;;6.73;4.70;;;;;;;21.65;100.00;102174.75;4926315;29;20698;-81
2023/07/09 00:16:33;;;;;;;5.40;4.40;;;;;;;21.46;100.00;102173.22;4924795;29;20479;-81
2023/07/09 00:18:59;;;;;;;6.70;4.57;;;;;;;21.54;100.00;102191.97;4922906;29;20474;-82
2023/07/09 00:21:25;;;;;;;5.90;4.53;;;;;;;21.51;100.00;102197.91;4928490;29;20195;-82
2023/07/09 00:23:50;;;;;;;6.90;4.90;;;;;;;21.39;100.00;102209.66;4928236;29;20238;-82
2023/07/09 00:26:17;;;;;;;8.10;3.73;;;;;;;20.98;100.00;102102.31;4930875;29;20907;-82
2023/07/09 00:28:43;;;;;;;5.50;4.70;;;;;;;21.52;100.00;102173.09;4928947;29;20211;-81
2023/07/09 00:31:14;;;;;;;6.13;4.70;;;;;;;21.44;100.00;102184.41;4929525;29;20462;-82
2023/07/09 00:33:41;;;;;;;7.73;5.30;;;;;;;20.58;100.00;102044.09;4925821;29;20471;-82
2023/07/09 00:36:15;;;;;;;7.87;5.13;;;;;;;21.43;100.00;102185.44;4924266;29;21190;-82
2023/07/09 00:38:41;;;;;;;9.03;4.80;;;;;;;21.21;100.00;102130.63;4930155;29;20442;-82
2023/07/09 00:41:17;;;;;;;7.03;4.67;;;;;;;20.59;100.00;102078.44;4931530;29;20443;-82
2023/07/09 00:43:46;;;;;;;5.17;4.67;;;;;;;21.40;100.00;102186.75;4921899;29;21024;-82
2023/07/09 00:46:17;;;;;;;7.30;5.03;;;;;;;21.38;100.00;102191.66;4929401;29;20454;-82
2023/07/09 00:48:45;;;;;;;5.50;5.00;;;;;;;20.23;100.00;102015.72;4927929;29;20470;-82
2023/07/09 00:51:13;;;;;;;4.63;4.07;;;;;;;21.28;100.00;102202.28;4927628;29;20591;-82
2023/07/09 00:53:45;;;;;;;6.80;4.77;;;;;;;20.95;100.00;102161.94;4930132;29;20609;-82
2023/07/09 00:56:14;;;;;;;6.33;4.53;;;;;;;21.34;100.00;102193.13;4928497;29;20502;-82
2023/07/09 00:58:47;;;;;;;6.40;4.53;;;;;;;20.96;100.00;102152.69;4931111;29;20440;-82
2023/07/09 01:01:18;;;;;;;8.03;5.13;;;;;;;20.84;100.00;102130.88;4925166;29;20446;-82
2023/07/09 01:03:51;;;;;;;9.67;5.10;;;;;;;21.16;100.00;102217.81;4926926;29;20479;-82
2023/07/09 01:06:35;;;;;;;7.30;4.80;;;;;;;21.16;100.00;102193.28;4943447;29;20511;-82
2023/07/09 01:09:03;;;;;;;10.07;4.63;;;;;;;21.27;100.00;102205.25;4930525;29;20605;-82
2023/07/09 01:11:30;;;;;;;6.13;5.03;;;;;;;20.23;100.00;102040.22;4929942;29;20447;-82
2023/07/09 01:13:59;;;;;;;5.07;4.60;;;;;;;21.13;100.00;102196.47;4928122;29;20916;-83
2023/07/09 01:16:28;;;;;;;7.57;4.97;;;;;;;20.92;100.00;102185.06;4931289;29;20444;-82
2023/07/09 01:18:54;;;;;;;8.60;4.73;;;;;;;20.98;100.00;102214.13;4929973;29;21089;-83
2023/07/09 01:21:20;;;;;;;6.93;4.93;;;;;;;21.06;100.00;102223.03;4932580;29;20514;-81
2023/07/09 01:23:48;;;;;;;4.70;4.20;;;;;;;20.88;100.00;102218.50;4932534;29;20568;-82
2023/07/09 01:26:16;;;;;;;5.23;4.50;;;;;;;21.03;100.00;102218.03;4930330;29;20483;-83
2023/07/09 01:28:43;;;;;;;8.77;5.80;;;;;;;20.92;100.00;102197.88;4928507;29;20546;-82
2023/07/09 01:31:12;;;;;;;9.80;5.70;;;;;;;20.77;100.00;102228.28;4931998;29;20427;-82
2023/07/09 01:33:41;;;;;;;5.87;5.00;;;;;;;19.94;100.00;102107.28;4930709;29;20531;-82
2023/07/09 01:36:08;;;;;;;10.50;5.20;;;;;;;20.79;100.00;102255.34;4932353;29;20424;-82
2023/07/09 01:38:34;;;;;;;6.23;5.00;;;;;;;20.80;100.00;102241.50;4930117;29;20459;-83
2023/07/09 01:41:00;;;;;;;6.30;5.70;;;;;;;20.70;100.00;102260.28;4928891;29;20470;-81
2023/07/09 01:43:26;;;;;;;8.13;5.17;;;;;;;20.58;100.00;102221.28;4928497;29;20568;-83
2023/07/09 01:45:52;;;;;;;6.47;4.87;;;;;;;20.89;100.00;102240.09;4927492;29;20450;-82
2023/07/09 01:48:20;;;;;;;7.30;5.30;;;;;;;20.85;100.00;102233.41;4927836;29;20534;-82
2023/07/09 01:50:49;;;;;;;7.97;5.37;;;;;;;20.82;100.00;102244.78;4925095;29;20239;-82
2023/07/09 01:53:17;;;;;;;9.50;5.37;;;;;;;20.63;100.00;102243.22;4940304;29;20463;-82
2023/07/09 01:55:44;;;;;;;6.40;5.80;;;;;;;20.68;100.00;102251.50;4926534;29;20447;-82
2023/07/09 01:58:10;;;;;;;8.37;5.17;;;;;;;20.69;100.00;102245.84;4920828;29;20526;-82
2023/07/09 02:00:37;;;;;;;16.50;5.50;;;;;;;20.57;100.00;102238.66;4925552;29;20485;-82
2023/07/09 02:03:04;;;;;;;7.70;5.90;;;;;;;20.81;100.00;102256.78;4937239;28;20999;-82
2023/07/09 02:05:32;;;;;;;6.93;6.17;;;;;;;19.64;100.00;102118.09;4924027;29;20439;-82
2023/07/09 02:07:57;;;;;;;6.77;5.33;;;;;;;19.95;100.00;102124.44;4923279;29;20521;-82
2023/07/09 02:10:23;;;;;;;7.50;5.80;;;;;;;20.51;100.00;102221.31;4920669;29;20878;-83
2023/07/09 02:12:49;;;;;;;6.90;5.73;;;;;;;20.41;100.00;102259.22;4919435;29;20239;-82
2023/07/09 02:15:15;;;;;;;10.70;5.50;;;;;;;20.27;100.00;102277.63;4921477;29;20494;-81
2023/07/09 02:17:41;;;;;;;6.60;5.33;;;;;;;20.15;100.00;102252.22;4924516;29;20212;-82
2023/07/09 02:20:09;;;;;;;6.23;5.60;;;;;;;20.31;100.00;102276.13;4919555;29;20447;-81
2023/07/09 02:22:36;;;;;;;9.20;6.30;;;;;;;20.10;100.00;102274.66;4924604;29;20587;-82
2023/07/09 02:25:02;;;;;;;7.83;5.60;;;;;;;20.23;100.00;102269.06;4921678;29;20975;-83
2023/07/09 02:27:28;;;;;;;8.37;6.03;;;;;;;19.56;100.00;102149.19;4922338;29;20498;-82
2023/07/09 02:29:54;;;;;;;7.90;6.17;;;;;;;20.12;100.00;102261.66;4925552;29;20439;-83
2023/07/09 02:32:25;;;;;;;8.63;7.07;;;;;;;19.98;100.00;102203.78;4921399;29;20211;-83
2023/07/09 02:34:52;;;;;;;9.50;5.83;;;;;;;19.77;100.00;102212.44;4924183;29;20542;-83
2023/07/09 02:37:19;;;;;;;6.37;5.53;;;;;;;20.22;100.00;102288.34;4923521;29;20581;-82
2023/07/09 02:39:45;;;;;;;8.80;6.33;;;;;;;20.08;100.00;102299.44;4922487;29;20459;-83
2023/07/09 02:42:11;;;;;;;6.37;5.17;;;;;;;20.17;100.00;102315.47;4922679;29;20507;-82
2023/07/09 02:44:38;;;;;;;9.83;5.90;;;;;;;20.07;100.00;102329.59;4922621;29;20262;-82
2023/07/09 02:47:04;;;;;;;7.67;5.83;;;;;;;20.02;100.00;102333.00;4922203;29;20940;-81
2023/07/09 02:49:29;;;;;;;6.77;5.83;;;;;;;19.79;100.00;102339.09;4922390;29;20502;-84
2023/07/09 02:51:54;;;;;;;7.17;6.23;;;;;;;19.96;100.00;102360.28;4920239;29;20717;-82
2023/07/09 02:54:20;;;;;;;7.80;5.73;;;;;;;19.99;100.00;102379.78;4922580;29;20211;-82
2023/07/09 02:56:46;;;;;;;7.27;5.93;;;;;;;19.89;100.00;102403.94;4922866;29;20188;-82
2023/07/09 02:59:11;;;;;;;8.40;6.27;;;;;;;19.90;100.00;102399.31;4923224;29;20187;-82
2023/07/09 03:01:37;;;;;;;7.10;6.40;;;;;;;19.95;100.00;102369.53;4921041;29;20458;-83
2023/07/09 03:04:03;;;;;;;7.97;6.37;;;;;;;19.78;100.00;102382.88;4922022;29;20238;-83
2023/07/09 03:06:32;;;;;;;10.33;7.33;;;;;;;19.72;100.00;102403.66;4921983;29;20239;-82
2023/07/09 03:08:59;;;;;;;6.53;5.93;;;;;;;19.59;100.00;102341.16;4918366;29;20634;-83
2023/07/09 03:11:25;;;;;;;6.47;5.67;;;;;;;19.70;100.00;102377.72;4924283;29;20455;-82
2023/07/09 03:13:50;;;;;;;8.03;6.10;;;;;;;19.48;100.00;102333.69;4927708;29;20470;-82
2023/07/09 03:16:16;;;;;;;6.43;5.70;;;;;;;19.76;100.00;102382.25;4929154;29;20199;-82
2023/07/09 03:18:42;;;;;;;8.13;6.10;;;;;;;19.36;100.00;102315.38;4925929;29;20191;-82
2023/07/09 03:21:07;;;;;;;8.67;6.30;;;;;;;19.70;100.00;102400.34;4925713;29;20282;-82
2023/07/09 03:23:32;;;;;;;6.50;5.73;;;;;;;19.68;100.00;102371.69;4926306;29;20215;-82
2023/07/09 03:25:59;;;;;;;8.20;6.23;;;;;;;19.72;100.00;102389.22;4925008;29;20636;-83
2023/07/09 03:28:26;;;;;;;7.00;5.67;;;;;;;18.66;100.00;102211.25;4941749;28;20603;-82
2023/07/09 03:30:54;;;;;;;8.37;6.90;;;;;;;19.62;100.00;102392.41;4925978;29;20435;-83
2023/07/09 03:33:20;;;;;;;10.73;6.30;;;;;;;19.52;100.00;102368.41;4927939;29;20868;-83
2023/07/09 03:35:45;;;;;;;9.73;6.60;;;;;;;19.48;100.00;102344.59;4923148;29;20447;-83
2023/07/09 03:38:11;;;;;;;7.83;5.97;;;;;;;19.43;100.00;102345.25;4929747;29;20573;-83
2023/07/09 03:40:40;;;;;;;7.50;6.17;;;;;;;19.73;100.00;102378.13;4944507;29;20195;-83
2023/07/09 03:43:06;;;;;;;9.60;6.27;;;;;;;19.71;100.00;102369.34;4927533;29;20265;-82
2023/07/09 03:45:32;;;;;;;8.13;6.10;;;;;;;19.75;100.00;102389.59;4920738;29;20951;-83
2023/07/09 03:47:59;;;;;;;8.77;6.20;;;;;;;19.76;100.00;102380.41;4926705;29;20467;-83
2023/07/09 03:50:24;;;;;;;11.00;6.20;;;;;;;19.71;100.00;102376.69;4925347;29;20487;-83
2023/07/09 03:52:49;;;;;;;7.70;6.20;;;;;;;19.80;100.00;102369.88;4923208;29;20583;-83
2023/07/09 03:55:15;;;;;;;9.40;5.70;;;;;;;19.75;100.00;102353.38;4922445;29;20585;-83
2023/07/09 03:57:41;;;;;;;7.20;6.30;;;;;;;19.62;100.00;102321.66;4924517;29;20188;-82
2023/07/09 04:00:10;;;;;;;8.10;6.27;;;;;;;19.35;100.00;102263.88;4923018;29;20203;-83
2023/07/09 04:02:36;;;;;;;8.13;6.07;;;;;;;19.67;100.00;102342.78;4920621;29;20212;-83
2023/07/09 04:05:03;;;;;;;9.20;6.93;;;;;;;19.79;100.00;102352.72;4923275;29;20467;-83
2023/07/09 04:07:28;;;;;;;7.87;6.80;;;;;;;19.48;100.00;102318.19;4920497;29;20863;-82
2023/07/09 04:09:53;;;;;;;6.70;6.00;;;;;;;19.49;100.00;102340.81;4923456;29;21492;-83
2023/07/09 04:12:19;;;;;;;7.63;6.67;;;;;;;19.94;100.00;102341.47;4922658;29;20857;-83
2023/07/09 04:14:44;;;;;;;9.10;6.40;;;;;;;19.59;100.00;102290.25;4919078;29;20195;-82
2023/07/09 04:17:10;;;;;;;7.90;6.50;;;;;;;19.27;100.00;102253.31;4921791;29;20200;-83
2023/07/09 04:19:35;;;;;;;8.80;6.27;;;;;;;19.68;100.00;102325.41;4922567;29;20198;-83
2023/07/09 04:22:00;;;;;;;8.73;6.40;;;;;;;19.71;100.00;102327.69;4924641;29;20199;-83
2023/07/09 04:24:27;;;;;;;6.97;6.00;;;;;;;19.85;100.00;102327.31;4922712;29;20195;-83
2023/07/09 04:26:56;;;;;;;8.43;6.43;;;;;;;19.38;100.00;102263.44;4926789;29;20180;-83
2023/07/09 04:29:22;;;;;;;6.87;6.20;;;;;;;19.68;100.00;102330.84;4927389;29;20450;-83
2023/07/09 04:31:47;;;;;;;8.20;6.20;;;;;;;19.78;100.00;102328.44;4923985;29;21142;-83
2023/07/09 04:34:13;;;;;;;7.93;7.13;;;;;;;19.58;100.00;102282.31;4927148;29;20557;-83
2023/07/09 04:36:39;;;;;;;9.27;5.87;;;;;;;19.84;100.00;102312.03;4925259;29;20215;-83
2023/07/09 04:39:04;;;;;;;7.50;6.80;;;;;;;19.91;100.00;102311.16;4927002;29;20184;-83
2023/07/09 04:41:30;;;;;;;10.13;6.53;;;;;;;20.09;100.00;102320.16;4924459;29;20672;-83
2023/07/09 04:43:55;;;;;;;7.90;7.03;;;;;;;19.87;100.00;102286.22;4923456;29;20235;-83
2023/07/09 04:46:21;;;;;;;10.50;6.87;;;;;;;19.85;100.00;102272.03;4925378;29;20279;-83
2023/07/09 04:48:46;;;;;;;8.50;6.90;;;;;;;19.91;100.00;102290.19;4923645;29;20631;-83
2023/07/09 04:51:12;;;;;;;7.17;5.93;;;;;;;20.04;100.00;102310.97;4924239;29;20559;-83
2023/07/09 04:53:37;;;;;;;7.30;6.20;;;;;;;20.07;100.00;102313.25;4925194;29;20215;-82
2023/07/09 04:56:02;;;;;;;7.90;7.00;;;;;;;20.15;100.00;102328.47;4920918;29;20836;-83
2023/07/09 04:58:29;;;;;;;12.23;7.47;;;;;;;20.22;100.00;102291.06;4923518;29;20184;-83
2023/07/09 05:00:58;;;;;;;12.10;7.00;;;;;;;19.80;100.00;102206.53;4924513;29;20199;-82
2023/07/09 05:03:24;;;;;;;8.00;6.20;;;;;;;20.17;100.00;102261.00;4924438;29;20959;-83
2023/07/09 05:05:50;;;;;;;7.57;6.77;;;;;;;20.32;100.00;102269.59;4927366;29;20450;-83
2023/07/09 05:08:16;;;;;;;8.10;6.83;;;;;;;20.33;100.00;102279.41;4927352;29;20239;-83
2023/07/09 05:10:46;;;;;;;9.17;7.40;;;;;;;20.38;100.00;102254.22;4929299;29;20191;-82
2023/07/09 05:13:12;;;;;;;9.10;7.07;;;;;;;20.04;100.00;102242.91;4927528;29;20471;-83
2023/07/09 05:15:44;;;;;;;8.70;7.10;;;;;;;20.34;100.00;102278.38;4925399;29;20443;-82
2023/07/09 05:18:10;;;;;;;9.27;7.20;;;;;;;20.13;100.00;102254.31;4926218;29;20469;-82
2023/07/09 05:20:35;;;;;;;11.17;7.10;;;;;;;20.06;100.00;102199.94;4942126;28;20944;-83
2023/07/09 05:23:01;;;;;;;8.37;7.40;;;;;;;20.62;100.00;102271.53;4925504;29;20219;-81
2023/07/09 05:25:26;;;;;;;9.70;6.93;;;;;;;20.44;100.00;102262.28;4924829;29;20195;-84
2023/07/09 05:27:52;;;;;;;7.43;6.67;;;;;;;20.36;100.00;102270.78;4929648;29;20595;-82
2023/07/09 05:30:18;;;;;;;11.07;7.50;;;;;;;20.16;100.00;102185.75;4931831;29;20195;-83
2023/07/09 05:32:44;;;;;;;9.93;7.40;;;;;;;20.63;100.00;102254.13;4927314;29;20219;-83
2023/07/09 05:35:09;;;;;;;8.03;7.10;;;;;;;20.66;100.00;102265.38;4927726;29;20509;-84
2023/07/09 05:37:36;;;;;;;9.27;6.53;;;;;;;20.58;100.00;102278.50;4929977;29;20187;-83
2023/07/09 05:40:04;;;;;;;10.30;7.63;;;;;;;20.72;100.00;102283.53;4928069;29;20195;-83
2023/07/09 05:42:29;;;;;;;7.90;7.10;;;;;;;20.59;100.00;102229.19;4924549;29;20502;-83
2023/07/09 05:44:55;;;;;;;8.37;7.17;;;;;;;20.76;100.00;102267.53;4924124;29;21033;-83
2023/07/09 05:47:20;;;;;;;8.33;6.77;;;;;;;20.69;100.00;102261.38;4927726;29;20215;-83
2023/07/09 05:49:49;;;;;;;8.23;6.20;;;;;;;20.81;100.00;102256.78;4929994;29;20195;-84
2023/07/09 05:52:15;;;;;;;8.60;7.03;;;;;;;20.94;100.00;102264.78;4928023;29;20203;-83
2023/07/09 05:54:40;;;;;;;9.07;6.67;;;;;;;20.92;100.00;102288.72;4923724;29;20470;-83
2023/07/09 05:57:06;;;;;;;8.10;6.77;;;;;;;21.01;100.00;102263.84;4920837;29;20187;-81
2023/07/09 05:59:31;;;;;;;7.73;6.93;;;;;;;20.92;100.00;102241.53;4922907;29;20191;-82
2023/07/09 06:01:57;;;;;;;10.83;7.50;;;;;;;21.15;100.00;102254.38;4921810;29;20676;-82
2023/07/09 06:04:22;;;;;;;8.57;7.67;;;;;;;21.10;100.00;102274.16;4922155;29;20580;-82
2023/07/09 06:06:47;;;;;;;8.03;7.10;;;;;;;21.16;100.00;102284.13;4924337;29;20218;-82
2023/07/09 06:09:13;;;;;;;7.83;7.03;;;;;;;20.95;100.00;102265.59;4926050;29;20213;-82
2023/07/09 06:11:38;;;;;;;9.50;6.50;;;;;;;20.89;100.00;102236.53;4924137;29;20183;-80
2023/07/09 06:14:04;;;;;;;7.13;6.10;;;;;;;21.40;100.00;102301.38;4917106;29;20215;-80
2023/07/09 06:16:29;;;;;;;7.17;6.20;;;;;;;21.12;100.00;102243.94;4925350;29;20247;-82
2023/07/09 06:18:54;;;;;;;12.43;7.43;;;;;;;21.09;100.00;102212.50;4921483;29;20660;-82
2023/07/09 06:21:20;;;;;;;7.27;6.57;;;;;;;21.69;100.00;102276.94;4923395;29;20302;-81
2023/07/09 06:23:46;;;;;;;9.00;7.10;;;;;;;21.55;100.00;102321.94;4924012;29;20319;-81
2023/07/09 06:26:12;;;;;;;8.87;6.67;;;;;;;21.46;100.00;102252.38;4926456;29;20192;-81
2023/07/09 06:28:37;;;;;;;8.80;6.93;;;;;;;21.77;100.00;102241.09;4926299;29;20486;-81
2023/07/09 06:31:03;;;;;;;9.60;7.50;;;;;;;21.82;100.00;102222.09;4927785;29;20478;-80
2023/07/09 06:33:29;;;;;;;10.00;7.37;;;;;;;21.86;100.00;102192.38;4925639;29;20215;-81
2023/07/09 06:36:00;;;;;;;8.17;6.93;;;;;;;21.85;100.00;102193.47;4928560;29;20629;-82
2023/07/09 06:38:26;;;;;;;8.30;6.43;;;;;;;21.93;100.00;102179.44;4926483;29;20439;-82
2023/07/09 06:40:52;;;;;;;8.67;6.90;;;;;;;22.03;100.00;102167.88;4928798;29;20801;-82
2023/07/09 06:43:18;;;;;;;8.50;6.77;;;;;;;22.03;100.00;102155.03;4928687;29;20477;-82
2023/07/09 06:45:50;;;;;;;8.67;7.23;;;;;;;22.11;100.00;102151.91;4924847;29;20454;-82
2023/07/09 06:48:16;;;;;;;8.50;7.03;;;;;;;22.09;100.00;102140.41;4921645;29;20204;-82
2023/07/09 06:50:41;;;;;;;7.80;6.53;;;;;;;21.91;100.00;102082.41;4927250;29;20530;-84
2023/07/09 06:53:07;;;;;;;8.23;6.57;;;;;;;22.19;100.00;102134.34;4925625;29;20223;-82
2023/07/09 06:55:33;;;;;;;8.67;7.03;;;;;;;22.30;100.00;102141.66;4922931;29;20195;-82
2023/07/09 06:57:59;;;;;;;9.97;7.53;;;;;;;22.28;100.00;102113.72;4918855;29;20180;-82
2023/07/09 07:00:24;;;;;;;9.20;7.50;;;;;;;22.37;100.00;102127.00;4923097;29;20510;-83
2023/07/09 07:02:49;;;;;;;8.57;6.67;;;;;;;22.43;100.00;102132.28;4927008;29;20259;-82
2023/07/09 07:05:15;;;;;;;9.10;7.20;;;;;;;22.48;100.00;102121.47;4925277;29;20220;-82
2023/07/09 07:07:40;;;;;;;9.37;7.07;;;;;;;22.45;100.00;102116.50;4924445;29;20792;-83
2023/07/09 07:10:06;;;;;;;9.13;6.47;;;;;;;22.31;100.00;102087.81;4925872;29;20191;-83
2023/07/09 07:12:42;;;;;;;8.53;6.67;;;;;;;22.32;100.00;102090.28;4926698;29;20263;-82
2023/07/09 07:15:08;;;;;;;9.80;7.30;;;;;;;22.60;100.00;102124.09;4921987;29;20469;-83
2023/07/09 07:17:33;;;;;;;8.13;7.03;;;;;;;22.63;100.00;102126.34;4922681;29;20919;-84
2023/07/09 07:19:59;;;;;;;7.40;6.40;;;;;;;22.73;100.00;102118.28;4923436;29;20188;-81
2023/07/09 07:22:24;;;;;;;8.13;6.87;;;;;;;22.54;100.00;102084.91;4925621;29;20235;-84
2023/07/09 07:24:49;;;;;;;11.73;7.17;;;;;;;22.87;100.00;102115.22;4951724;28;20172;-84
2023/07/09 07:27:15;;;;;;;9.07;7.07;;;;;;;22.88;100.00;102125.06;4933577;28;20190;-83
2023/07/09 07:29:40;;;;;;;11.47;7.37;;;;;;;23.01;100.00;102111.09;4924316;29;20278;-85
2023/07/09 07:32:06;;;;;;;8.13;6.30;;;;;;;23.04;100.00;102123.44;4927414;29;20310;-84
2023/07/09 07:34:32;;;;;;;10.40;7.57;;;;;;;22.94;100.00;102110.41;4925983;29;20187;-82
2023/07/09 07:36:57;;;;;;;20.43;6.50;;;;;;;22.95;100.00;102099.25;4924293;29;20958;-84
2023/07/09 07:39:22;;;;;;;11.23;6.80;;;;;;;22.92;100.00;102086.03;4928681;29;20184;-84
2023/07/09 07:41:50;;;;;;;8.60;6.20;;;;;;;23.09;100.00;102121.63;4925765;29;20257;-84
2023/07/09 07:44:16;;;;;;;9.07;6.80;;;;;;;22.99;100.00;102075.75;4926439;29;20211;-85
2023/07/09 07:46:41;;;;;;;8.00;6.53;;;;;;;23.22;100.00;102112.19;4923241;29;20819;-85
2023/07/09 07:49:06;;;;;;;11.50;6.73;;;;;;;23.72;100.00;102088.47;4929162;29;20203;-87
2023/07/09 07:51:33;;;;;;;8.33;5.80;;;;;;;23.58;100.00;102101.72;4924628;29;20195;-85
2023/07/09 07:53:59;;;;;;;10.07;7.30;;;;;;;23.23;100.00;102059.97;4926864;29;20692;-86
2023/07/09 07:56:25;;;;;;;8.50;6.70;;;;;;;23.24;100.00;102014.25;4923973;29;20448;-84
2023/07/09 07:58:51;;;;;;;11.77;6.90;;;;;;;23.56;100.00;102093.75;4925813;29;20176;-85
2023/07/09 08:01:17;;;;;;;8.10;7.27;;;;;;;23.62;100.00;102084.50;4925079;29;20444;-85
2023/07/09 08:03:42;;;;;;;12.03;8.20;;;;;;;24.02;100.00;102061.41;4923151;29;20297;-84
2023/07/09 08:06:07;;;;;;;9.20;6.97;;;;;;;24.06;100.00;102061.72;4926411;29;20655;-85
2023/07/09 08:08:33;;;;;;;8.07;7.17;;;;;;;23.96;100.00;102053.41;4926431;29;20214;-84
2023/07/09 08:11:04;;;;;;;7.60;6.40;;;;;;;23.85;100.00;102047.81;4926241;29;20223;-85
2023/07/09 08:13:32;;;;;;;8.07;6.40;;;;;;;24.06;100.00;102076.22;4922011;29;20230;-85
2023/07/09 08:15:58;;;;;;;13.53;7.20;;;;;;;23.76;100.00;102052.09;4921727;29;20538;-83
2023/07/09 08:18:23;;;;;;;12.20;6.40;;;;;;;24.18;100.00;101990.28;4916878;29;20474;-81
2023/07/09 08:20:49;;;;;;;8.90;7.80;;;;;;;24.41;100.00;102044.72;4918734;29;20196;-83
2023/07/09 08:23:14;;;;;;;12.47;6.80;;;;;;;23.56;100.00;101945.06;4919129;29;20218;-81
2023/07/09 08:25:39;;;;;;;8.00;6.80;;;;;;;24.50;100.00;102012.19;4919039;29;20792;-84
2023/07/09 08:28:05;;;;;;;8.23;6.90;;;;;;;24.48;100.00;102017.94;4922368;29;21027;-84
2023/07/09 08:30:30;;;;;;;15.20;7.90;;;;;;;24.51;100.00;102060.47;4926839;29;20191;-82
2023/07/09 08:32:57;;;;;;;9.73;6.77;;;;;;;24.84;100.00;102044.78;4921252;29;20207;-83
2023/07/09 08:35:22;;;;;;;12.77;6.87;;;;;;;24.36;100.00;102011.81;4923402;29;20188;-83
2023/07/09 08:37:48;;;;;;;9.33;6.23;;;;;;;24.54;100.00;102043.50;4923946;29;20959;-89
2023/07/09 08:40:16;;;;;;;12.83;7.23;;;;;;;24.93;100.00;102037.69;4946256;28;20188;-85
2023/07/09 08:42:49;;;;;;;9.20;6.87;;;;;;;24.73;100.00;102019.19;4926959;29;20211;-85
2023/07/09 08:45:30;;;;;;;10.07;6.87;;;;;;;24.74;100.00;102070.25;4928338;29;20447;-84
2023/07/09 08:48:05;;;;;;;7.43;6.20;;;;;;;24.46;100.00;102087.88;4923971;29;20551;-83
2023/07/09 08:50:41;;;;;;;11.40;6.90;;;;;;;24.53;100.00;102091.19;4927106;29;20471;-82
2023/07/09 08:53:20;;;;;;;8.33;6.33;;;;;;;24.61;100.00;102098.13;4932221;29;20850;-84
2023/07/09 08:55:49;;;;;;;9.67;6.30;;;;;;;24.60;100.00;102080.03;4930923;29;20431;-84
2023/07/09 08:58:25;;;;;;;8.70;6.67;;;;;;;24.91;100.00;102114.81;4929757;29;20428;-83
2023/07/09 09:00:58;;;;;;;8.83;6.83;;;;;;;25.02;100.00;102100.06;4931265;29;20418;-83
2023/07/09 09:04:02;;;;;;;9.27;6.23;;;;;;;25.04;100.00;102044.88;4946019;29;20795;-83
2023/07/09 09:06:30;;;;;;;10.23;6.30;;;;;;;25.29;100.00;102057.13;4929439;29;20443;-82
2023/07/09 09:09:11;;;;;;;10.27;6.80;;;;;;;25.13;100.00;102034.22;4929981;29;20539;-84
2023/07/09 09:11:52;;;;;;;8.63;6.10;;;;;;;25.28;100.00;102050.78;4932768;29;20559;-84
2023/07/09 09:14:32;;;;;;;9.10;6.93;;;;;;;25.40;100.00;102007.47;4932877;29;20431;-86
2023/07/09 09:16:59;;;;;;;8.97;6.97;;;;;;;25.68;100.00;101953.91;4932694;29;21145;-83
2023/07/09 09:19:37;;;;;;;11.93;6.63;;;;;;;25.59;100.00;102045.41;4933481;29;20924;-85
2023/07/09 09:22:13;;;;;;;9.17;6.90;;;;;;;25.54;100.00;101947.31;4939486;29;20447;-81
2023/07/09 09:24:58;;;;;;;9.03;7.67;;;;;;;25.76;100.00;101993.78;4930766;29;20435;-84
2023/07/09 09:27:24;;;;;;;7.07;5.87;;;;;;;25.75;100.00;102008.63;4927669;29;20435;-86
2023/07/09 09:29:49;;;;;;;8.03;7.17;;;;;;;26.00;100.00;101985.03;4926920;29;20489;-86
2023/07/09 09:32:30;;;;;;;8.33;6.77;;;;;;;26.30;100.00;101978.69;4930686;29;20980;-84
2023/07/09 09:34:56;;;;;;;13.07;7.00;;;;;;;25.86;100.00;101985.59;4931852;29;20226;-84
2023/07/09 09:37:30;;;;;;;8.50;7.03;;;;;;;25.72;100.00;101995.44;4931588;29;20439;-85
2023/07/09 09:39:58;;;;;;;7.63;6.30;;;;;;;25.79;100.00;101990.47;4930981;29;20229;-85
2023/07/09 09:42:25;;;;;;;10.23;7.10;;;;;;;25.60;100.00;101894.06;4930980;29;20486;-84
2023/07/09 09:44:53;;;;;;;8.90;6.27;;;;;;;25.87;100.00;101995.47;4945236;28;20446;-84
2023/07/09 09:47:19;;;;;;;7.70;6.67;;;;;;;26.10;100.00;101977.59;4931156;29;20451;-84
2023/07/09 09:49:44;;;;;;;9.77;7.30;;;;;;;26.12;100.00;101958.06;4934648;29;20446;-85
2023/07/09 09:52:17;;;;;;;9.60;6.57;;;;;;;26.66;100.00;101953.88;4933346;28;20183;-84
2023/07/09 09:54:56;;;;;;;9.57;6.73;;;;;;;25.79;100.00;101888.81;4930039;29;20259;-83
2023/07/09 09:57:25;;;;;;;9.80;6.87;;;;;;;25.99;100.00;101860.50;4961367;28;20514;-84
2023/07/09 09:59:53;;;;;;;7.03;6.23;;;;;;;26.01;100.00;101871.22;4939737;28;20435;-84
2023/07/09 10:02:22;;;;;;;8.70;5.93;;;;;;;26.31;100.00;101994.09;4933211;29;20443;-86
2023/07/09 10:04:48;;;;;;;7.97;6.30;;;;;;;26.38;100.00;101976.22;4929192;29;20506;-84
2023/07/09 10:07:24;;;;;;;8.43;6.90;;;;;;;26.49;100.00;101974.22;4931059;29;20435;-85
2023/07/09 10:09:52;;;;;;;11.43;7.17;;;;;;;25.76;100.00;101918.78;4931296;29;20258;-86
2023/07/09 10:12:44;;;;;;;7.20;6.50;;;;;;;26.28;100.00;102000.97;4946392;29;20451;-86
2023/07/09 10:15:42;;;;;;;8.40;6.90;;;;;;;26.50;100.00;102016.34;4931524;29;20420;-85
2023/07/09 10:18:38;;;;;;;7.20;6.10;;;;;;;26.66;100.00;102004.22;4931586;29;20462;-85
2023/07/09 10:21:15;;;;;;;9.33;6.60;;;;;;;27.11;100.00;101954.75;4929982;29;20473;-85
2023/07/09 10:24:15;;;;;;;10.53;6.57;;;;;;;27.38;100.00;101971.72;4939964;29;20459;-83
2023/07/09 10:26:48;;;;;;;7.47;6.73;;;;;;;26.75;100.00;101971.44;4933065;29;20485;-86
2023/07/09 10:29:40;;;;;;;9.63;5.10;;;;;;;26.81;100.00;101960.13;4931609;29;21188;-86
2023/07/09 10:32:33;;;;;;;6.90;5.90;;;;;;;27.24;100.00;101945.91;4930377;29;21289;-82
2023/07/09 10:35:07;;;;;;;7.30;5.50;;;;;;;26.98;100.00;101939.69;4930561;29;20431;-84
2023/07/09 10:37:38;;;;;;;9.00;6.20;;;;;;;26.79;100.00;101956.03;4928739;29;20483;-85
2023/07/09 10:40:09;;;;;;;12.27;6.50;;;;;;;26.99;100.00;101971.63;4927375;29;20435;-84
2023/07/09 10:42:45;;;;;;;8.10;6.10;;;;;;;26.89;100.00;101952.41;4930700;29;20498;-84
2023/07/09 10:45:14;;;;;;;9.07;6.70;;;;;;;26.28;100.00;101868.94;4925356;29;20427;-83
2023/07/09 10:47:50;;;;;;;7.70;6.20;;;;;;;27.25;100.00;101950.31;4931274;29;21055;-88
2023/07/09 10:50:26;;;;;;;11.97;5.60;;;;;;;27.24;100.00;101932.16;4941464;28;20967;-82
2023/07/09 10:52:58;;;;;;;8.53;6.23;;;;;;;27.43;100.00;101916.59;4931735;29;20447;-86
2023/07/09 10:55:38;;;;;;;8.20;5.70;;;;;;;27.32;100.00;101939.81;4963133;28;20435;-82
2023/07/09 10:58:15;;;;;;;8.80;5.70;;;;;;;27.27;100.00;101929.66;4933500;29;20455;-88
2023/07/09 11:00:41;;;;;;;7.70;6.43;;;;;;;26.54;100.00;101820.19;4942243;28;21158;-87
2023/07/09 11:03:18;;;;;;;11.73;6.30;;;;;;;27.24;100.00;101855.03;4922100;29;20459;-84
2023/07/09 11:05:44;;;;;;;9.80;6.27;;;;;;;27.59;100.00;101931.06;4945590;29;20838;-87
2023/07/09 11:08:17;;;;;;;7.17;6.47;;;;;;;27.50;100.00;101924.53;4946304;29;20487;-85
2023/07/09 11:11:02;;;;;;;8.23;5.80;;;;;;;27.80;100.00;101941.97;4929867;29;20995;-86
2023/07/09 11:13:43;;;;;;;6.20;5.50;;;;;;;27.48;100.00;101907.47;4935796;28;20750;-85
2023/07/09 11:16:14;;;;;;;6.80;5.90;;;;;;;27.78;100.00;101858.72;4930629;29;20431;-84
2023/07/09 11:18:40;;;;;;;8.20;6.07;;;;;;;27.38;100.00;101869.81;4923536;29;20436;-84
2023/07/09 11:21:16;;;;;;;6.50;5.20;;;;;;;27.84;100.00;101910.78;4942936;29;20522;-86
2023/07/09 11:23:59;;;;;;;11.37;5.83;;;;;;;27.80;100.00;101934.53;4961064;28;20211;-88